createdAt,value
2023-02-15T00:00:09.336Z,8.70
2023-02-15T00:02:36.124Z,8.68
2023-02-15T00:05:02.933Z,8.64
2023-02-15T00:07:29.683Z,8.62
2023-02-15T00:09:56.369Z,8.59
2023-02-15T00:12:23.168Z,8.56
2023-02-15T00:14:49.934Z,8.54
2023-02-15T00:17:16.763Z,8.51
2023-02-15T00:19:43.487Z,8.49
2023-02-15T00:22:10.413Z,8.48
2023-02-15T00:24:37.112Z,8.46
2023-02-15T00:27:03.988Z,8.47
2023-02-15T00:29:30.862Z,8.42
2023-02-15T00:31:57.579Z,8.41
2023-02-15T00:34:27.886Z,8.39
2023-02-15T00:36:54.660Z,8.39
2023-02-15T00:39:22.604Z,8.37
2023-02-15T00:41:49.446Z,8.35
2023-02-15T00:44:16.633Z,8.33
2023-02-15T00:46:43.525Z,8.30
2023-02-15T00:49:11.024Z,8.27
2023-02-15T00:51:38.099Z,8.24
2023-02-15T00:54:04.852Z,8.24
2023-02-15T00:56:31.592Z,8.24
2023-02-15T00:58:58.406Z,8.21
2023-02-15T01:01:27.011Z,8.22
2023-02-15T01:03:54.379Z,8.21
2023-02-15T01:06:21.366Z,8.19
2023-02-15T01:08:48.358Z,8.20
2023-02-15T01:11:23.381Z,8.20
2023-02-15T01:13:56.841Z,8.17
2023-02-15T01:16:25.594Z,8.16
2023-02-15T01:18:53.151Z,8.15
2023-02-15T01:21:22.722Z,8.13
2023-02-15T01:23:50.164Z,8.10
2023-02-15T01:26:17.905Z,8.10
2023-02-15T01:28:45.156Z,8.08
2023-02-15T01:31:15.362Z,8.07
2023-02-15T01:33:42.792Z,8.08
2023-02-15T01:36:09.663Z,8.08
2023-02-15T01:38:37.089Z,8.08
2023-02-15T01:41:23.113Z,8.08
2023-02-15T01:44:03.800Z,8.07
2023-02-15T01:46:44.061Z,8.08
2023-02-15T01:49:20.724Z,8.08
2023-02-15T01:51:50.375Z,8.09
2023-02-15T01:54:30.923Z,8.08
2023-02-15T01:57:03.631Z,8.09
2023-02-15T01:59:32.790Z,8.07
2023-02-15T02:02:02.000Z,8.08
2023-02-15T02:04:48.399Z,8.05
2023-02-15T02:07:18.593Z,8.03
2023-02-15T02:09:46.387Z,8.04
2023-02-15T02:12:15.443Z,8.02
2023-02-15T02:14:43.325Z,7.99
2023-02-15T02:17:34.812Z,7.98
2023-02-15T02:20:18.979Z,7.98
2023-02-15T02:22:52.788Z,7.98
2023-02-15T02:25:53.154Z,7.98
2023-02-15T02:29:04.805Z,7.98
2023-02-15T02:31:46.557Z,8.01
2023-02-15T02:34:38.568Z,7.99
2023-02-15T02:37:24.709Z,8.01
2023-02-15T02:40:11.303Z,8.01
2023-02-15T02:42:44.204Z,8.02
2023-02-15T02:45:42.083Z,8.03
2023-02-15T02:48:23.943Z,8.04
2023-02-15T02:50:50.930Z,8.05
2023-02-15T02:53:19.569Z,8.07
2023-02-15T02:55:58.231Z,8.07
2023-02-15T02:58:28.564Z,8.07
2023-02-15T03:00:58.364Z,8.08
2023-02-15T03:03:28.984Z,8.07
2023-02-15T03:06:00.994Z,8.06
2023-02-15T03:08:37.033Z,8.06
2023-02-15T03:11:05.330Z,8.05
2023-02-15T03:13:33.154Z,8.05
2023-02-15T03:16:21.448Z,8.03
2023-02-15T03:18:58.950Z,8.03
2023-02-15T03:21:43.355Z,8.00
2023-02-15T03:24:24.123Z,8.02
2023-02-15T03:26:53.104Z,8.01
2023-02-15T03:29:23.566Z,8.01
2023-02-15T03:31:55.127Z,8.03
2023-02-15T03:34:22.022Z,8.04
2023-02-15T03:36:54.624Z,8.05
2023-02-15T03:39:42.067Z,8.07
2023-02-15T03:42:14.703Z,8.09
2023-02-15T03:45:05.111Z,8.12
2023-02-15T03:47:36.503Z,8.13
2023-02-15T03:50:26.848Z,8.15
2023-02-15T03:52:56.628Z,8.18
2023-02-15T03:55:23.820Z,8.21
2023-02-15T03:58:09.961Z,8.26
2023-02-15T04:01:00.524Z,8.32
2023-02-15T04:03:52.882Z,8.40
2023-02-15T04:06:19.761Z,8.46
2023-02-15T04:09:08.117Z,8.52
2023-02-15T04:11:34.964Z,8.58
2023-02-15T04:14:21.776Z,8.62
2023-02-15T04:16:48.612Z,8.69
2023-02-15T04:19:34.218Z,8.73
2023-02-15T04:22:19.689Z,8.75
2023-02-15T04:25:05.139Z,8.78
2023-02-15T04:27:31.929Z,8.79
2023-02-15T04:29:58.794Z,8.83
2023-02-15T04:32:25.550Z,8.86
2023-02-15T04:34:53.301Z,8.88
2023-02-15T04:37:20.253Z,8.90
2023-02-15T04:39:46.985Z,8.91
2023-02-15T04:42:13.859Z,8.94
2023-02-15T04:44:40.590Z,8.97
2023-02-15T04:47:07.353Z,8.98
2023-02-15T04:49:34.069Z,8.99
2023-02-15T04:52:00.789Z,9.04
2023-02-15T04:54:27.626Z,9.06
2023-02-15T04:56:54.460Z,9.08
2023-02-15T04:59:21.210Z,9.09
2023-02-15T05:01:47.975Z,9.11
2023-02-15T05:04:16.379Z,9.11
2023-02-15T05:06:43.235Z,9.12
2023-02-15T05:09:10.033Z,9.13
2023-02-15T05:11:36.797Z,9.15
2023-02-15T05:14:03.592Z,9.15
2023-02-15T05:16:30.429Z,9.13
2023-02-15T05:18:57.941Z,9.05
2023-02-15T05:21:24.728Z,8.81
2023-02-15T05:23:51.505Z,8.53
2023-02-15T05:26:51.056Z,8.30
2023-02-15T05:29:17.784Z,8.09
2023-02-15T05:31:48.385Z,7.95
2023-02-15T05:34:15.298Z,7.86
2023-02-15T05:36:42.032Z,7.77
2023-02-15T05:39:09.522Z,7.69
2023-02-15T05:41:36.267Z,7.61
2023-02-15T05:44:03.017Z,7.56
2023-02-15T05:46:29.859Z,7.53
2023-02-15T05:48:56.549Z,7.46
2023-02-15T05:51:24.335Z,7.39
2023-02-15T05:53:51.111Z,7.34
2023-02-15T05:56:17.865Z,7.30
2023-02-15T05:58:44.601Z,7.26
2023-02-15T06:01:16.451Z,7.27
2023-02-15T06:03:43.320Z,7.27
2023-02-15T06:06:10.550Z,7.24
2023-02-15T06:08:38.780Z,7.21
2023-02-15T06:11:06.524Z,7.18
2023-02-15T06:13:36.561Z,7.18
2023-02-15T06:16:05.579Z,7.20
2023-02-15T06:18:32.627Z,7.20
2023-02-15T06:21:03.336Z,7.18
2023-02-15T06:23:30.159Z,7.14
2023-02-15T06:25:56.925Z,7.12
2023-02-15T06:28:23.812Z,7.08
2023-02-15T06:30:50.593Z,7.06
2023-02-15T06:33:17.398Z,7.02
2023-02-15T06:35:44.290Z,6.99
2023-02-15T06:38:11.135Z,6.97
2023-02-15T06:40:37.936Z,6.93
2023-02-15T06:43:05.137Z,6.92
2023-02-15T06:45:32.898Z,6.87
2023-02-15T06:47:59.641Z,6.86
2023-02-15T06:50:26.394Z,6.85
2023-02-15T06:52:59.840Z,6.84
2023-02-15T06:55:26.870Z,6.82
2023-02-15T06:57:54.712Z,6.80
2023-02-15T07:00:23.238Z,6.77
2023-02-15T07:02:57.283Z,6.77
2023-02-15T07:05:24.689Z,6.74
2023-02-15T07:07:51.707Z,6.72
2023-02-15T07:10:18.482Z,6.67
2023-02-15T07:12:48.282Z,6.63
2023-02-15T07:15:17.655Z,6.60
2023-02-15T07:17:45.205Z,6.58
2023-02-15T07:20:15.875Z,6.57
2023-02-15T07:22:43.284Z,6.56
2023-02-15T07:25:11.609Z,6.55
2023-02-15T07:27:38.971Z,6.53
2023-02-15T07:30:09.265Z,6.51
2023-02-15T07:32:36.353Z,6.48
2023-02-15T07:35:03.579Z,6.46
2023-02-15T07:37:30.381Z,6.45
2023-02-15T07:39:57.130Z,6.46
2023-02-15T07:42:23.954Z,6.48
2023-02-15T07:44:50.888Z,6.51
2023-02-15T07:47:17.816Z,6.54
2023-02-15T07:49:47.598Z,6.53
2023-02-15T07:52:14.440Z,6.53
2023-02-15T07:54:41.417Z,6.52
2023-02-15T07:57:08.118Z,6.52
2023-02-15T07:59:34.835Z,6.51
2023-02-15T08:02:01.599Z,6.51
2023-02-15T08:04:28.319Z,6.51
2023-02-15T08:06:55.905Z,6.49
2023-02-15T08:09:23.758Z,6.50
2023-02-15T08:11:50.869Z,6.52
2023-02-15T08:14:20.017Z,6.51
2023-02-15T08:16:56.073Z,6.51
2023-02-15T08:19:36.719Z,6.52
2023-02-15T08:22:07.330Z,6.53
2023-02-15T08:24:39.861Z,6.53
2023-02-15T08:27:12.197Z,6.52
2023-02-15T08:29:40.471Z,6.54
2023-02-15T08:32:13.194Z,6.55
2023-02-15T08:34:42.524Z,6.56
2023-02-15T08:37:10.457Z,6.56
2023-02-15T08:39:37.878Z,6.58
2023-02-15T08:42:04.840Z,6.60
2023-02-15T08:44:31.757Z,6.63
2023-02-15T08:47:03.840Z,6.66
2023-02-15T08:49:32.188Z,6.70
2023-02-15T08:51:58.984Z,6.73
2023-02-15T08:54:25.739Z,6.75
2023-02-15T08:56:52.499Z,6.78
2023-02-15T08:59:22.091Z,6.82
2023-02-15T09:01:51.159Z,6.86
2023-02-15T09:04:18.713Z,6.91
2023-02-15T09:06:49.244Z,6.94
2023-02-15T09:09:17.920Z,6.94
2023-02-15T09:11:46.991Z,6.93
2023-02-15T09:14:16.998Z,6.95
2023-02-15T09:16:47.525Z,6.95
2023-02-15T09:19:14.378Z,6.96
2023-02-15T09:21:41.568Z,6.92
2023-02-15T09:24:12.508Z,6.88
2023-02-15T09:26:42.262Z,6.84
2023-02-15T09:29:10.333Z,6.83
2023-02-15T09:31:46.126Z,6.81
2023-02-15T09:34:14.855Z,6.81
2023-02-15T09:36:42.256Z,6.85
2023-02-15T09:39:11.706Z,6.88
2023-02-15T09:41:38.391Z,6.91
2023-02-15T09:44:29.535Z,6.93
2023-02-15T09:47:11.227Z,6.96
2023-02-15T09:49:59.346Z,6.98
2023-02-15T09:52:43.473Z,7.02
2023-02-15T09:55:13.508Z,7.06
2023-02-15T09:58:10.807Z,7.08
2023-02-15T10:00:46.038Z,7.14
2023-02-15T10:03:50.925Z,7.20
2023-02-15T10:06:25.625Z,7.28
2023-02-15T10:09:23.275Z,7.38
2023-02-15T10:11:52.656Z,7.46
2023-02-15T10:14:38.853Z,7.54
2023-02-15T10:17:08.423Z,7.58
2023-02-15T10:19:35.054Z,7.61
2023-02-15T10:22:14.306Z,7.63
2023-02-15T10:24:48.900Z,7.68
2023-02-15T10:27:21.419Z,7.74
2023-02-15T10:30:02.225Z,7.82
2023-02-15T10:32:36.102Z,7.93
2023-02-15T10:35:21.296Z,8.10
2023-02-15T10:38:09.961Z,8.27
2023-02-15T10:41:12.041Z,8.46
2023-02-15T10:43:53.504Z,8.58
2023-02-15T10:46:50.347Z,8.72
2023-02-15T10:49:44.517Z,8.79
2023-02-15T10:52:37.240Z,8.85
2023-02-15T10:55:25.945Z,8.88
2023-02-15T10:58:13.244Z,8.90
2023-02-15T11:01:10.031Z,8.95
2023-02-15T11:03:47.903Z,8.97
2023-02-15T11:06:21.467Z,8.99
2023-02-15T11:08:52.691Z,9.00
2023-02-15T11:11:25.556Z,8.97
2023-02-15T11:13:59.685Z,8.95
2023-02-15T11:16:38.216Z,8.97
2023-02-15T11:19:15.321Z,8.98
2023-02-15T11:21:48.799Z,8.97
2023-02-15T11:24:21.121Z,8.98
2023-02-15T11:26:47.696Z,8.94
2023-02-15T11:29:37.287Z,8.94
2023-02-15T11:32:24.974Z,8.97
2023-02-15T11:34:54.685Z,8.98
2023-02-15T11:37:29.862Z,9.01
2023-02-15T11:39:57.840Z,8.99
2023-02-15T11:42:26.671Z,9.00
2023-02-15T11:45:00.393Z,9.01
2023-02-15T11:47:27.206Z,9.02
2023-02-15T11:49:54.069Z,9.04
2023-02-15T11:52:20.968Z,9.08
2023-02-15T11:54:53.076Z,9.12
2023-02-15T11:57:39.031Z,9.16
2023-02-15T12:00:14.126Z,9.22
2023-02-15T12:02:45.768Z,9.26
2023-02-15T12:05:18.367Z,9.29
2023-02-15T12:07:50.533Z,9.30
2023-02-15T12:10:23.465Z,9.31
2023-02-15T12:13:10.879Z,9.31
2023-02-15T12:15:38.780Z,9.33
2023-02-15T12:18:06.934Z,9.35
2023-02-15T12:20:35.396Z,9.37
2023-02-15T12:23:05.401Z,9.42
2023-02-15T12:25:55.437Z,9.47
2023-02-15T12:28:39.695Z,9.47
2023-02-15T12:31:25.383Z,9.46
2023-02-15T12:33:56.244Z,9.47
2023-02-15T12:36:30.972Z,9.47
2023-02-15T12:39:04.529Z,9.48
2023-02-15T12:41:31.399Z,9.49
2023-02-15T12:44:19.561Z,9.48
2023-02-15T12:47:01.544Z,9.46
2023-02-15T12:49:31.521Z,9.45
2023-02-15T12:52:01.592Z,9.49
2023-02-15T12:54:31.280Z,9.53
2023-02-15T12:56:59.785Z,9.51
2023-02-15T12:59:26.898Z,9.49
2023-02-15T13:01:57.225Z,9.46
2023-02-15T13:04:28.429Z,9.47
2023-02-15T13:06:58.589Z,9.47
2023-02-15T13:09:32.386Z,9.49
2023-02-15T13:12:18.065Z,9.50
2023-02-15T13:14:47.892Z,9.50
2023-02-15T13:17:17.133Z,9.52
2023-02-15T13:19:55.555Z,9.55
2023-02-15T13:22:34.616Z,9.62
2023-02-15T13:25:11.531Z,9.65
2023-02-15T13:27:44.391Z,9.65
2023-02-15T13:30:28.091Z,9.66
2023-02-15T13:33:01.449Z,9.66
2023-02-15T13:35:37.972Z,9.63
2023-02-15T13:38:14.907Z,9.63
2023-02-15T13:40:57.133Z,9.63
2023-02-15T13:43:49.204Z,9.64
2023-02-15T13:46:24.862Z,9.68
2023-02-15T13:49:06.915Z,9.67
2023-02-15T13:51:36.314Z,9.67
2023-02-15T13:54:32.654Z,9.68
2023-02-15T13:57:38.281Z,9.73
2023-02-15T14:00:26.523Z,9.74
2023-02-15T14:03:18.495Z,9.75
2023-02-15T14:05:55.344Z,9.71
2023-02-15T14:09:01.753Z,9.73
2023-02-15T14:12:00.982Z,9.76
2023-02-15T14:14:48.862Z,9.79
2023-02-15T14:17:37.110Z,9.81
2023-02-15T14:20:29.317Z,9.82
2023-02-15T14:23:17.710Z,9.83
2023-02-15T14:25:52.267Z,9.82
2023-02-15T14:28:38.875Z,9.82
2023-02-15T14:31:08.419Z,9.82
2023-02-15T14:33:41.069Z,9.84
2023-02-15T14:36:12.410Z,9.86
2023-02-15T14:39:45.970Z,9.87
2023-02-15T14:42:33.905Z,9.86
2023-02-15T14:45:15.008Z,9.88
2023-02-15T14:48:00.666Z,9.89
2023-02-15T14:50:38.562Z,9.92
2023-02-15T14:53:23.510Z,9.91
2023-02-15T14:56:11.854Z,9.96
2023-02-15T14:58:53.281Z,9.97
2023-02-15T15:01:30.632Z,9.99
2023-02-15T15:04:09.834Z,10.01
2023-02-15T15:06:40.575Z,10.01
2023-02-15T15:09:22.864Z,9.99
2023-02-15T15:11:50.635Z,9.95
2023-02-15T15:14:32.889Z,9.93
2023-02-15T15:17:05.714Z,9.94
2023-02-15T15:19:51.764Z,9.93
2023-02-15T15:22:27.334Z,9.91
2023-02-15T15:25:18.124Z,9.88
2023-02-15T15:27:51.865Z,9.84
2023-02-15T15:30:18.662Z,9.82
2023-02-15T15:33:00.619Z,9.81
2023-02-15T15:35:45.806Z,9.78
2023-02-15T15:38:40.208Z,9.77
2023-02-15T15:41:19.825Z,9.73
2023-02-15T15:44:05.124Z,9.72
2023-02-15T15:46:46.351Z,9.70
2023-02-15T15:49:18.914Z,9.66
2023-02-15T15:51:47.296Z,9.64
2023-02-15T15:54:18.577Z,9.64
2023-02-15T15:56:59.370Z,9.65
2023-02-15T15:59:32.432Z,9.66
2023-02-15T16:02:14.143Z,9.68
2023-02-15T16:04:41.095Z,9.70
2023-02-15T16:07:17.060Z,9.73
2023-02-15T16:10:06.265Z,9.75
2023-02-15T16:12:37.073Z,9.78
2023-02-15T16:15:16.965Z,9.78
2023-02-15T16:17:48.668Z,9.76
2023-02-15T16:20:19.880Z,9.76
2023-02-15T16:23:04.871Z,9.72
2023-02-15T16:25:37.590Z,9.66
2023-02-15T16:28:12.333Z,9.61
2023-02-15T16:30:40.857Z,9.58
2023-02-15T16:33:18.348Z,9.53
2023-02-15T16:35:57.769Z,9.48
2023-02-15T16:38:43.198Z,9.45
2023-02-15T16:41:16.377Z,9.42
2023-02-15T16:43:46.637Z,9.39
2023-02-15T16:46:21.655Z,9.39
2023-02-15T16:48:52.947Z,9.36
2023-02-15T16:51:23.568Z,9.35
2023-02-15T16:53:50.879Z,9.33
2023-02-15T16:56:24.673Z,9.32
2023-02-15T16:58:54.667Z,9.31
2023-02-15T17:01:25.975Z,9.30
2023-02-15T17:04:14.021Z,9.27
2023-02-15T17:06:40.883Z,9.24
2023-02-15T17:09:19.467Z,9.22
2023-02-15T17:11:46.319Z,9.22
2023-02-15T17:14:15.608Z,9.19
2023-02-15T17:16:50.118Z,9.16
2023-02-15T17:19:21.243Z,9.14
2023-02-15T17:21:57.042Z,9.10
2023-02-15T17:24:33.030Z,9.06
2023-02-15T17:27:05.105Z,9.04
2023-02-15T17:29:45.569Z,9.00
2023-02-15T17:32:23.265Z,8.97
2023-02-15T17:35:09.581Z,8.97
2023-02-15T17:37:39.195Z,8.97
2023-02-15T17:40:25.803Z,8.95
2023-02-15T17:42:53.292Z,8.93
2023-02-15T17:45:21.298Z,8.92
2023-02-15T17:47:49.900Z,8.92
2023-02-15T17:50:25.670Z,8.91
2023-02-15T17:52:54.004Z,8.90
2023-02-15T17:55:39.254Z,8.89
2023-02-15T17:58:15.675Z,8.90
2023-02-15T18:01:07.967Z,8.90
2023-02-15T18:04:09.521Z,8.90
2023-02-15T18:06:58.188Z,8.91
2023-02-15T18:09:44.277Z,8.88
2023-02-15T18:12:19.464Z,8.89
2023-02-15T18:14:46.211Z,8.89
2023-02-15T18:17:17.238Z,8.90
2023-02-15T18:19:46.874Z,8.90
2023-02-15T18:22:16.917Z,8.90
2023-02-15T18:24:44.115Z,8.89
2023-02-15T18:27:13.472Z,8.90
2023-02-15T18:29:40.869Z,8.90
2023-02-15T18:32:10.965Z,8.90
2023-02-15T18:34:40.221Z,8.90
2023-02-15T18:37:15.672Z,8.90
2023-02-15T18:39:49.554Z,8.89
2023-02-15T18:42:27.532Z,8.89
2023-02-15T18:44:57.427Z,8.89
2023-02-15T18:47:24.422Z,8.87
2023-02-15T18:49:51.271Z,8.87
2023-02-15T18:52:26.252Z,8.86
2023-02-15T18:54:59.903Z,8.84
2023-02-15T18:57:28.377Z,8.82
2023-02-15T18:59:55.307Z,8.83
2023-02-15T19:02:22.115Z,8.81
2023-02-15T19:04:48.819Z,8.81
2023-02-15T19:07:22.034Z,8.80
2023-02-15T19:09:52.702Z,8.80
2023-02-15T19:12:22.310Z,8.79
2023-02-15T19:14:51.339Z,8.80
2023-02-15T19:17:21.144Z,8.80
2023-02-15T19:19:48.403Z,8.80
2023-02-15T19:22:17.134Z,8.79
2023-02-15T19:24:46.081Z,8.77
2023-02-15T19:27:24.864Z,8.78
2023-02-15T19:29:52.872Z,8.76
2023-02-15T19:32:19.724Z,8.76
2023-02-15T19:34:46.795Z,8.74
2023-02-15T19:37:34.457Z,8.74
2023-02-15T19:40:03.998Z,8.71
2023-02-15T19:42:32.511Z,8.68
2023-02-15T19:44:59.233Z,8.69
2023-02-15T19:47:28.208Z,8.69
2023-02-15T19:50:00.852Z,8.68
2023-02-15T19:52:27.712Z,8.69
2023-02-15T19:54:56.550Z,8.68
2023-02-15T19:57:23.794Z,8.69
2023-02-15T19:59:50.531Z,8.68
2023-02-15T20:02:20.287Z,8.67
2023-02-15T20:04:47.115Z,8.65
2023-02-15T20:07:25.421Z,8.66
2023-02-15T20:09:52.712Z,8.65
2023-02-15T20:12:27.008Z,8.64
2023-02-15T20:14:53.909Z,8.62
2023-02-15T20:17:22.436Z,8.62
2023-02-15T20:19:49.193Z,8.61
2023-02-15T20:22:27.363Z,8.60
2023-02-15T20:24:56.400Z,8.60
2023-02-15T20:27:24.162Z,8.59
2023-02-15T20:29:55.884Z,8.58
2023-02-15T20:32:23.947Z,8.58
2023-02-15T20:34:51.380Z,8.57
2023-02-15T20:37:28.960Z,8.56
2023-02-15T20:39:56.073Z,8.57
2023-02-15T20:42:22.931Z,8.57
2023-02-15T20:44:50.858Z,8.57
2023-02-15T20:47:18.532Z,8.58
2023-02-15T20:49:45.503Z,8.58
2023-02-15T20:52:20.488Z,8.58
2023-02-15T20:54:49.642Z,8.60
2023-02-15T20:57:16.949Z,8.61
2023-02-15T20:59:43.909Z,8.60
2023-02-15T21:02:23.982Z,8.61
2023-02-15T21:04:51.231Z,8.61
2023-02-15T21:07:20.593Z,8.62
2023-02-15T21:09:51.063Z,8.61
2023-02-15T21:12:22.966Z,8.61
2023-02-15T21:14:52.107Z,8.60
2023-02-15T21:17:20.430Z,8.59
2023-02-15T21:19:47.280Z,8.58
2023-02-15T21:22:15.895Z,8.57
2023-02-15T21:24:50.972Z,8.55
2023-02-15T21:27:17.983Z,8.56
2023-02-15T21:29:45.343Z,8.56
2023-02-15T21:32:12.256Z,8.53
2023-02-15T21:34:41.209Z,8.50
2023-02-15T21:37:28.527Z,8.48
2023-02-15T21:39:56.688Z,8.47
2023-02-15T21:42:42.014Z,8.46
2023-02-15T21:45:38.363Z,8.43
2023-02-15T21:48:05.318Z,8.41
2023-02-15T21:50:51.150Z,8.40
2023-02-15T21:53:27.935Z,8.38
2023-02-15T21:55:57.705Z,8.38
2023-02-15T21:58:27.248Z,8.38
2023-02-15T22:00:55.683Z,8.34
2023-02-15T22:03:30.021Z,8.34
2023-02-15T22:05:57.308Z,8.33
2023-02-15T22:08:24.219Z,8.33
2023-02-15T22:10:51.554Z,8.32
2023-02-15T22:13:30.089Z,8.29
2023-02-15T22:15:57.497Z,8.25
2023-02-15T22:18:27.263Z,8.26
2023-02-15T22:20:58.181Z,8.25
2023-02-15T22:23:24.889Z,8.27
2023-02-15T22:25:55.219Z,8.27
2023-02-15T22:28:28.128Z,8.28
2023-02-15T22:30:54.850Z,8.27
2023-02-15T22:33:32.734Z,8.25
2023-02-15T22:35:59.911Z,8.22
2023-02-15T22:38:27.010Z,8.22
2023-02-15T22:40:56.635Z,8.20
2023-02-15T22:43:53.125Z,8.17
2023-02-15T22:46:26.169Z,8.16
2023-02-15T22:48:53.173Z,8.15
2023-02-15T22:51:23.591Z,8.14
2023-02-15T22:53:52.297Z,8.12
2023-02-15T22:56:26.792Z,8.09
2023-02-15T22:59:00.737Z,8.08
2023-02-15T23:01:31.284Z,8.06
2023-02-15T23:03:58.136Z,8.05
2023-02-15T23:06:25.141Z,8.03
2023-02-15T23:08:52.152Z,8.03
2023-02-15T23:11:19.066Z,8.03
2023-02-15T23:13:48.168Z,8.02
2023-02-15T23:16:17.912Z,8.02
2023-02-15T23:18:46.798Z,7.99
2023-02-15T23:21:16.456Z,8.00
2023-02-15T23:23:45.278Z,7.97
2023-02-15T23:26:19.801Z,7.95
2023-02-15T23:28:47.167Z,7.94
2023-02-15T23:31:42.430Z,7.93
2023-02-15T23:34:35.467Z,7.89
2023-02-15T23:37:02.240Z,7.87
2023-02-15T23:39:47.504Z,7.89
2023-02-15T23:42:18.129Z,7.88
2023-02-15T23:44:46.706Z,7.86
2023-02-15T23:47:44.397Z,7.85
2023-02-15T23:50:28.739Z,7.82
2023-02-15T23:52:58.183Z,7.79
2023-02-15T23:55:35.289Z,7.76
2023-02-15T23:58:07.122Z,7.76
